Arbuckle, West Virginia
Current Conditions -  °F | °C
As of 11:15 AM on Monday 26 Jan 2015 (Local Time) from K3I2 Reporting Station
Light Snow Light Snow  
Wind Chill: -5°   Ceiling: 900
Heat Index: -1°   Visibility: 1.7mi
Dew Point: -2°   Wind: 7mph
Humidity: 93%   Direction: 300°WNW
Pressure: 29.82"   Gusts: NA
Location:  38.7463°N, 81.8897°W
Report Text: K3I2 261615Z AUTO 30006KT 1 3/4SM -SN BKN009 OVC014 M01/M02 A2982 RMK AO2
Loading
Personal Weather Stations






























Interactive Weather Map New forecast layout! Learn more

10-Day Weather Forecast

Advertisements
Track Severe Weather on mobile